Quick Links (Output Below):   Max & Min Temps   /   Climate Reports   /   Zone Forecasts
River Forecasts   /   Forestry Forecasts   /   Aviation Forecasts   /   Radars   /   Features

Terminal Aerodrome Forecast (Fayetteville)

Pick a Site:
Arkadelphia | El Dorado | Fayetteville | Fort Smith | Harrison | Highfill | Hot Springs | Jonesboro
Little Rock | Monticello | Mountain Home | Pine Bluff | Texarkana
 Forecast 

KFYV 261720Z 2618/2718 00000KT P6SM VCTS SCT040CB BKN250
     FM270100 VRB02KT P6SM BKN100
     FM271500 VRB03KT P6SM SCT035 BKN250=


 Latest METARs (Observations) 
How to Decode METARs
17Z KFYV 261653Z VRB03KT 10SM CLR 30/24 A3003 RMK AO2 SLP153
         T03000239
         
16Z KFYV 261553Z 00000KT 10SM CLR 29/24 A3004 RMK AO2 SLP155
         T02890244
         
15Z KFYV 261453Z 00000KT 10SM SCT034 26/23 A3004 RMK AO2 SLP159
         T02610233 50006
         
14Z KFYV 261353Z 00000KT 10SM CLR 25/24 A3005 RMK AO2 SLP160
         T02500239
         
13Z KFYV 261253Z 00000KT 7SM CLR 23/23 A3004 RMK AO2 SLP156
         T02330233
         
12Z KFYV 261153Z 15003KT 3SM BR BKN002 22/22 A3002 RMK AO2 SLP152
         70051 T02170217 10233 20211 53004
         
11Z KFYV 261053Z 00000KT 4SM BR CLR 22/22 A3002 RMK AO2 SLP150
         T02170217
         
10Z KFYV 260953Z AUTO 00000KT 9SM CLR 22/22 A3001 RMK AO2 SLP148
         T02220222
         
09Z KFYV 260853Z AUTO 00000KT 9SM CLR 22/22 A3001 RMK AO2 SLP145
         T02220222 58009
         
08Z KFYV 260753Z AUTO 00000KT 10SM CLR 23/23 A3001 RMK AO2 SLP147
         T02280228
         
***** Today's Observations (Above) *****


Back to Main Page
http://www.srh.noaa.gov/lzk/qfcst.php

USA.gov is the U.S. government's official web portal to all federal, state and local government web resources and services.